sensor_id;sensor_type;location;lat;lon;timestamp;temperature;humidity
81140;SHT31;70624;51.978;5.656;2023-07-08T00:00:29;22.6;45.5
81140;SHT31;70624;51.978;5.656;2023-07-08T00:02:57;22.6;45.4
81140;SHT31;70624;51.978;5.656;2023-07-08T00:05:25;22.5;45.6
81140;SHT31;70624;51.978;5.656;2023-07-08T00:07:56;22.5;45.3
81140;SHT31;70624;51.978;5.656;2023-07-08T00:10:26;22.5;45.8
81140;SHT31;70624;51.978;5.656;2023-07-08T00:12:56;22.4;45.5
81140;SHT31;70624;51.978;5.656;2023-07-08T00:15:28;22.4;45.7
81140;SHT31;70624;51.978;5.656;2023-07-08T00:17:59;22.4;45.7
81140;SHT31;70624;51.978;5.656;2023-07-08T00:20:32;22.4;45.7
81140;SHT31;70624;51.978;5.656;2023-07-08T00:23:02;22.3;46.2
81140;SHT31;70624;51.978;5.656;2023-07-08T00:25:32;22.3;45.9
81140;SHT31;70624;51.978;5.656;2023-07-08T00:28:00;22.3;45.9
81140;SHT31;70624;51.978;5.656;2023-07-08T00:30:31;22.3;46.4
81140;SHT31;70624;51.978;5.656;2023-07-08T00:33:00;22.2;46.3
81140;SHT31;70624;51.978;5.656;2023-07-08T00:35:33;22.2;46.1
81140;SHT31;70624;51.978;5.656;2023-07-08T00:38:12;22.2;46.4
81140;SHT31;70624;51.978;5.656;2023-07-08T00:40:50;22.2;46.4
81140;SHT31;70624;51.978;5.656;2023-07-08T00:43:24;22.1;46.7
81140;SHT31;70624;51.978;5.656;2023-07-08T00:46:04;22.1;46.8
81140;SHT31;70624;51.978;5.656;2023-07-08T00:48:40;22.1;47.0
81140;SHT31;70624;51.978;5.656;2023-07-08T00:51:10;22.1;46.5
81140;SHT31;70624;51.978;5.656;2023-07-08T00:53:39;22.1;46.5
81140;SHT31;70624;51.978;5.656;2023-07-08T00:56:12;22.1;46.7
81140;SHT31;70624;51.978;5.656;2023-07-08T00:58:46;22.0;46.8
81140;SHT31;70624;51.978;5.656;2023-07-08T01:01:16;22.0;47.1
81140;SHT31;70624;51.978;5.656;2023-07-08T01:03:49;22.0;47.3
81140;SHT31;70624;51.978;5.656;2023-07-08T01:06:19;21.9;47.2
81140;SHT31;70624;51.978;5.656;2023-07-08T01:08:50;21.9;47.0
81140;SHT31;70624;51.978;5.656;2023-07-08T01:11:21;21.9;47.2
81140;SHT31;70624;51.978;5.656;2023-07-08T01:13:51;21.8;47.3
81140;SHT31;70624;51.978;5.656;2023-07-08T01:16:19;21.8;47.2
81140;SHT31;70624;51.978;5.656;2023-07-08T01:18:48;21.8;47.8
81140;SHT31;70624;51.978;5.656;2023-07-08T01:21:32;21.7;47.4
81140;SHT31;70624;51.978;5.656;2023-07-08T01:24:04;21.7;47.5
81140;SHT31;70624;51.978;5.656;2023-07-08T01:26:35;21.6;48.0
81140;SHT31;70624;51.978;5.656;2023-07-08T01:29:04;21.6;47.8
81140;SHT31;70624;51.978;5.656;2023-07-08T01:31:34;21.6;47.5
81140;SHT31;70624;51.978;5.656;2023-07-08T01:34:04;21.6;47.9
81140;SHT31;70624;51.978;5.656;2023-07-08T01:36:39;21.6;47.9
81140;SHT31;70624;51.978;5.656;2023-07-08T01:39:11;21.5;47.9
81140;SHT31;70624;51.978;5.656;2023-07-08T01:41:41;21.5;48.2
81140;SHT31;70624;51.978;5.656;2023-07-08T01:44:21;21.5;48.3
81140;SHT31;70624;51.978;5.656;2023-07-08T01:46:51;21.5;48.3
81140;SHT31;70624;51.978;5.656;2023-07-08T01:49:23;21.4;48.4
81140;SHT31;70624;51.978;5.656;2023-07-08T01:51:52;21.4;48.3
81140;SHT31;70624;51.978;5.656;2023-07-08T01:54:21;21.4;48.4
81140;SHT31;70624;51.978;5.656;2023-07-08T01:56:56;21.4;48.4
81140;SHT31;70624;51.978;5.656;2023-07-08T01:59:25;21.3;48.7
81140;SHT31;70624;51.978;5.656;2023-07-08T02:01:53;21.3;48.7
81140;SHT31;70624;51.978;5.656;2023-07-08T02:04:23;21.3;48.9
81140;SHT31;70624;51.978;5.656;2023-07-08T02:06:54;21.3;49.1
81140;SHT31;70624;51.978;5.656;2023-07-08T02:09:23;21.2;49.1
81140;SHT31;70624;51.978;5.656;2023-07-08T02:11:52;21.2;49.1
81140;SHT31;70624;51.978;5.656;2023-07-08T02:14:21;21.2;49.0
81140;SHT31;70624;51.978;5.656;2023-07-08T02:16:49;21.2;49.0
81140;SHT31;70624;51.978;5.656;2023-07-08T02:19:18;21.1;49.1
81140;SHT31;70624;51.978;5.656;2023-07-08T02:21:48;21.1;49.6
81140;SHT31;70624;51.978;5.656;2023-07-08T02:24:18;21.1;49.5
81140;SHT31;70624;51.978;5.656;2023-07-08T02:26:48;21.1;49.5
81140;SHT31;70624;51.978;5.656;2023-07-08T02:29:17;21.0;49.9
81140;SHT31;70624;51.978;5.656;2023-07-08T02:31:45;21.0;49.8
81140;SHT31;70624;51.978;5.656;2023-07-08T02:34:13;21.0;49.9
81140;SHT31;70624;51.978;5.656;2023-07-08T02:36:44;21.0;50.0
81140;SHT31;70624;51.978;5.656;2023-07-08T02:39:15;21.0;50.2
81140;SHT31;70624;51.978;5.656;2023-07-08T02:41:43;20.9;50.2
81140;SHT31;70624;51.978;5.656;2023-07-08T02:44:12;20.9;50.6
81140;SHT31;70624;51.978;5.656;2023-07-08T02:46:40;20.9;50.4
81140;SHT31;70624;51.978;5.656;2023-07-08T02:49:08;20.9;51.3
81140;SHT31;70624;51.978;5.656;2023-07-08T02:51:37;20.9;50.5
81140;SHT31;70624;51.978;5.656;2023-07-08T02:54:05;20.9;50.5
81140;SHT31;70624;51.978;5.656;2023-07-08T02:56:33;20.8;51.3
81140;SHT31;70624;51.978;5.656;2023-07-08T02:59:02;20.8;50.8
81140;SHT31;70624;51.978;5.656;2023-07-08T03:01:30;20.8;51.2
81140;SHT31;70624;51.978;5.656;2023-07-08T03:04:00;20.8;51.1
81140;SHT31;70624;51.978;5.656;2023-07-08T03:06:29;20.8;50.9
81140;SHT31;70624;51.978;5.656;2023-07-08T03:08:59;20.8;51.1
81140;SHT31;70624;51.978;5.656;2023-07-08T03:11:27;20.7;51.7
81140;SHT31;70624;51.978;5.656;2023-07-08T03:13:56;20.7;51.4
81140;SHT31;70624;51.978;5.656;2023-07-08T03:16:24;20.7;52.1
81140;SHT31;70624;51.978;5.656;2023-07-08T03:18:52;20.7;51.4
81140;SHT31;70624;51.978;5.656;2023-07-08T03:21:21;20.7;51.3
81140;SHT31;70624;51.978;5.656;2023-07-08T03:23:51;20.7;52.0
81140;SHT31;70624;51.978;5.656;2023-07-08T03:26:22;20.7;52.2
81140;SHT31;70624;51.978;5.656;2023-07-08T03:28:51;20.7;51.6
81140;SHT31;70624;51.978;5.656;2023-07-08T03:31:20;20.6;51.4
81140;SHT31;70624;51.978;5.656;2023-07-08T03:33:48;20.6;52.5
81140;SHT31;70624;51.978;5.656;2023-07-08T03:36:18;20.6;53.2
81140;SHT31;70624;51.978;5.656;2023-07-08T03:38:55;20.6;52.8
81140;SHT31;70624;51.978;5.656;2023-07-08T03:41:24;20.6;53.5
81140;SHT31;70624;51.978;5.656;2023-07-08T03:43:52;20.6;53.0
81140;SHT31;70624;51.978;5.656;2023-07-08T03:46:21;20.6;52.2
81140;SHT31;70624;51.978;5.656;2023-07-08T03:48:49;20.6;53.1
81140;SHT31;70624;51.978;5.656;2023-07-08T03:51:22;20.6;52.5
81140;SHT31;70624;51.978;5.656;2023-07-08T03:53:52;20.6;53.2
81140;SHT31;70624;51.978;5.656;2023-07-08T03:56:20;20.6;52.3
81140;SHT31;70624;51.978;5.656;2023-07-08T03:58:50;20.6;53.3
81140;SHT31;70624;51.978;5.656;2023-07-08T04:01:22;20.6;53.0
81140;SHT31;70624;51.978;5.656;2023-07-08T04:03:53;20.6;53.0
81140;SHT31;70624;51.978;5.656;2023-07-08T04:06:23;20.6;52.6
81140;SHT31;70624;51.978;5.656;2023-07-08T04:08:54;20.6;52.8
81140;SHT31;70624;51.978;5.656;2023-07-08T04:11:23;20.6;52.9
81140;SHT31;70624;51.978;5.656;2023-07-08T04:13:53;20.6;54.3
81140;SHT31;70624;51.978;5.656;2023-07-08T04:16:25;20.6;54.1
81140;SHT31;70624;51.978;5.656;2023-07-08T04:18:54;20.6;52.7
81140;SHT31;70624;51.978;5.656;2023-07-08T04:21:24;20.6;53.0
81140;SHT31;70624;51.978;5.656;2023-07-08T04:23:53;20.6;52.9
81140;SHT31;70624;51.978;5.656;2023-07-08T04:26:21;20.6;53.7
81140;SHT31;70624;51.978;5.656;2023-07-08T04:28:50;20.6;53.4
81140;SHT31;70624;51.978;5.656;2023-07-08T04:31:18;20.6;53.2
81140;SHT31;70624;51.978;5.656;2023-07-08T04:33:47;20.7;52.6
81140;SHT31;70624;51.978;5.656;2023-07-08T04:36:15;20.7;52.4
81140;SHT31;70624;51.978;5.656;2023-07-08T04:38:48;20.7;53.0
81140;SHT31;70624;51.978;5.656;2023-07-08T04:41:16;20.7;54.4
81140;SHT31;70624;51.978;5.656;2023-07-08T04:43:46;20.7;53.1
81140;SHT31;70624;51.978;5.656;2023-07-08T04:46:29;20.7;52.9
81140;SHT31;70624;51.978;5.656;2023-07-08T04:49:01;20.8;53.3
81140;SHT31;70624;51.978;5.656;2023-07-08T04:51:31;20.8;53.3
81140;SHT31;70624;51.978;5.656;2023-07-08T04:53:59;20.8;52.5
81140;SHT31;70624;51.978;5.656;2023-07-08T04:56:36;20.8;53.1
81140;SHT31;70624;51.978;5.656;2023-07-08T04:59:07;20.9;52.7
81140;SHT31;70624;51.978;5.656;2023-07-08T05:01:36;20.9;52.8
81140;SHT31;70624;51.978;5.656;2023-07-08T05:06:35;21.0;52.9
81140;SHT31;70624;51.978;5.656;2023-07-08T05:09:04;21.0;52.9
81140;SHT31;70624;51.978;5.656;2023-07-08T05:11:32;21.0;52.5
81140;SHT31;70624;51.978;5.656;2023-07-08T05:14:02;21.1;52.9
81140;SHT31;70624;51.978;5.656;2023-07-08T05:16:34;21.1;52.3
81140;SHT31;70624;51.978;5.656;2023-07-08T05:19:02;21.2;52.8
81140;SHT31;70624;51.978;5.656;2023-07-08T05:21:31;21.2;52.3
81140;SHT31;70624;51.978;5.656;2023-07-08T05:24:01;21.3;51.9
81140;SHT31;70624;51.978;5.656;2023-07-08T05:26:30;21.3;52.4
81140;SHT31;70624;51.978;5.656;2023-07-08T05:28:59;21.4;52.4
81140;SHT31;70624;51.978;5.656;2023-07-08T05:31:28;21.4;52.0
81140;SHT31;70624;51.978;5.656;2023-07-08T05:33:57;21.5;51.7
81140;SHT31;70624;51.978;5.656;2023-07-08T05:36:25;21.5;52.5
81140;SHT31;70624;51.978;5.656;2023-07-08T05:38:53;21.6;52.7
81140;SHT31;70624;51.978;5.656;2023-07-08T05:41:22;21.6;52.0
81140;SHT31;70624;51.978;5.656;2023-07-08T05:43:50;21.7;52.2
81140;SHT31;70624;51.978;5.656;2023-07-08T05:46:20;21.8;52.3
81140;SHT31;70624;51.978;5.656;2023-07-08T05:48:49;21.8;52.6
81140;SHT31;70624;51.978;5.656;2023-07-08T05:51:17;21.9;51.6
81140;SHT31;70624;51.978;5.656;2023-07-08T05:53:45;22.0;52.2
81140;SHT31;70624;51.978;5.656;2023-07-08T05:56:14;22.1;51.0
81140;SHT31;70624;51.978;5.656;2023-07-08T05:58:44;22.1;51.8
81140;SHT31;70624;51.978;5.656;2023-07-08T06:01:13;22.2;50.8
81140;SHT31;70624;51.978;5.656;2023-07-08T06:03:43;22.3;50.5
81140;SHT31;70624;51.978;5.656;2023-07-08T06:06:11;22.4;50.7
81140;SHT31;70624;51.978;5.656;2023-07-08T06:08:41;22.5;50.3
81140;SHT31;70624;51.978;5.656;2023-07-08T06:11:11;22.6;50.5
81140;SHT31;70624;51.978;5.656;2023-07-08T06:13:41;22.6;49.7
81140;SHT31;70624;51.978;5.656;2023-07-08T06:16:09;22.7;49.7
81140;SHT31;70624;51.978;5.656;2023-07-08T06:18:38;22.8;49.8
81140;SHT31;70624;51.978;5.656;2023-07-08T06:21:06;22.9;49.2
81140;SHT31;70624;51.978;5.656;2023-07-08T06:23:34;23.0;48.2
81140;SHT31;70624;51.978;5.656;2023-07-08T06:26:03;23.1;48.0
81140;SHT31;70624;51.978;5.656;2023-07-08T06:28:31;23.2;47.0
81140;SHT31;70624;51.978;5.656;2023-07-08T06:30:59;23.3;46.9
81140;SHT31;70624;51.978;5.656;2023-07-08T06:33:28;23.3;47.6
81140;SHT31;70624;51.978;5.656;2023-07-08T06:35:58;23.4;47.2
81140;SHT31;70624;51.978;5.656;2023-07-08T06:38:26;23.5;46.7
81140;SHT31;70624;51.978;5.656;2023-07-08T06:40:55;23.6;46.8
81140;SHT31;70624;51.978;5.656;2023-07-08T06:43:23;23.6;47.2
81140;SHT31;70624;51.978;5.656;2023-07-08T06:45:52;23.7;47.1
81140;SHT31;70624;51.978;5.656;2023-07-08T06:48:22;23.8;46.4
81140;SHT31;70624;51.978;5.656;2023-07-08T06:50:54;23.9;47.2
81140;SHT31;70624;51.978;5.656;2023-07-08T06:53:22;24.0;46.5
81140;SHT31;70624;51.978;5.656;2023-07-08T06:55:51;24.1;46.1
81140;SHT31;70624;51.978;5.656;2023-07-08T06:58:19;24.2;45.5
81140;SHT31;70624;51.978;5.656;2023-07-08T07:00:47;24.4;45.8
81140;SHT31;70624;51.978;5.656;2023-07-08T07:03:16;24.5;45.9
81140;SHT31;70624;51.978;5.656;2023-07-08T07:05:44;24.6;45.2
81140;SHT31;70624;51.978;5.656;2023-07-08T07:08:15;24.7;45.0
81140;SHT31;70624;51.978;5.656;2023-07-08T07:10:43;24.9;44.9
81140;SHT31;70624;51.978;5.656;2023-07-08T07:13:11;25.0;44.7
81140;SHT31;70624;51.978;5.656;2023-07-08T07:15:40;25.1;44.8
81140;SHT31;70624;51.978;5.656;2023-07-08T07:18:08;25.2;44.5
81140;SHT31;70624;51.978;5.656;2023-07-08T07:20:37;25.4;44.8
81140;SHT31;70624;51.978;5.656;2023-07-08T07:23:06;25.5;45.2
81140;SHT31;70624;51.978;5.656;2023-07-08T07:25:34;25.6;44.8
81140;SHT31;70624;51.978;5.656;2023-07-08T07:28:03;25.8;43.8
81140;SHT31;70624;51.978;5.656;2023-07-08T07:30:31;25.9;44.0
81140;SHT31;70624;51.978;5.656;2023-07-08T07:33:01;26.0;43.6
81140;SHT31;70624;51.978;5.656;2023-07-08T07:35:29;26.2;44.3
81140;SHT31;70624;51.978;5.656;2023-07-08T07:37:59;26.3;44.0
81140;SHT31;70624;51.978;5.656;2023-07-08T07:40:28;26.4;42.9
81140;SHT31;70624;51.978;5.656;2023-07-08T07:42:56;26.5;43.2
81140;SHT31;70624;51.978;5.656;2023-07-08T07:45:24;26.6;42.5
81140;SHT31;70624;51.978;5.656;2023-07-08T07:47:53;26.8;42.8
81140;SHT31;70624;51.978;5.656;2023-07-08T07:50:21;26.9;43.0
81140;SHT31;70624;51.978;5.656;2023-07-08T07:52:50;27.1;42.8
81140;SHT31;70624;51.978;5.656;2023-07-08T07:55:18;27.2;42.4
81140;SHT31;70624;51.978;5.656;2023-07-08T07:57:47;27.3;41.4
81140;SHT31;70624;51.978;5.656;2023-07-08T08:00:15;27.4;40.5
81140;SHT31;70624;51.978;5.656;2023-07-08T08:02:46;27.5;42.9
81140;SHT31;70624;51.978;5.656;2023-07-08T08:05:14;27.6;42.2
81140;SHT31;70624;51.978;5.656;2023-07-08T08:07:43;27.7;42.4
81140;SHT31;70624;51.978;5.656;2023-07-08T08:10:14;27.9;40.9
81140;SHT31;70624;51.978;5.656;2023-07-08T08:12:42;28.0;42.6
81140;SHT31;70624;51.978;5.656;2023-07-08T08:15:14;28.2;41.1
81140;SHT31;70624;51.978;5.656;2023-07-08T08:17:42;28.3;40.3
81140;SHT31;70624;51.978;5.656;2023-07-08T08:20:15;28.4;40.5
81140;SHT31;70624;51.978;5.656;2023-07-08T08:22:44;28.6;42.1
81140;SHT31;70624;51.978;5.656;2023-07-08T08:25:13;28.7;39.0
81140;SHT31;70624;51.978;5.656;2023-07-08T08:27:42;28.9;38.8
81140;SHT31;70624;51.978;5.656;2023-07-08T08:30:11;29.0;38.7
81140;SHT31;70624;51.978;5.656;2023-07-08T08:32:41;29.1;38.7
81140;SHT31;70624;51.978;5.656;2023-07-08T08:35:10;29.2;39.2
81140;SHT31;70624;51.978;5.656;2023-07-08T08:37:38;29.3;39.3
81140;SHT31;70624;51.978;5.656;2023-07-08T08:40:13;29.4;39.0
81140;SHT31;70624;51.978;5.656;2023-07-08T08:42:45;29.5;38.9
81140;SHT31;70624;51.978;5.656;2023-07-08T08:45:18;29.6;38.1
81140;SHT31;70624;51.978;5.656;2023-07-08T08:47:51;29.7;38.7
81140;SHT31;70624;51.978;5.656;2023-07-08T08:50:28;29.8;39.9
81140;SHT31;70624;51.978;5.656;2023-07-08T08:53:00;29.9;39.0
81140;SHT31;70624;51.978;5.656;2023-07-08T08:55:30;30.0;38.2
81140;SHT31;70624;51.978;5.656;2023-07-08T08:58:06;30.1;38.8
81140;SHT31;70624;51.978;5.656;2023-07-08T09:00:47;30.2;38.3
81140;SHT31;70624;51.978;5.656;2023-07-08T09:03:36;30.3;39.2
81140;SHT31;70624;51.978;5.656;2023-07-08T09:06:11;30.4;38.6
81140;SHT31;70624;51.978;5.656;2023-07-08T09:08:40;30.5;39.1
81140;SHT31;70624;51.978;5.656;2023-07-08T09:11:17;30.5;39.0
81140;SHT31;70624;51.978;5.656;2023-07-08T09:13:49;30.6;38.0
81140;SHT31;70624;51.978;5.656;2023-07-08T09:16:29;30.7;38.2
81140;SHT31;70624;51.978;5.656;2023-07-08T09:19:05;30.8;38.7
81140;SHT31;70624;51.978;5.656;2023-07-08T09:21:44;30.8;37.6
81140;SHT31;70624;51.978;5.656;2023-07-08T09:24:20;30.9;37.4
81140;SHT31;70624;51.978;5.656;2023-07-08T09:26:52;31.0;38.1
81140;SHT31;70624;51.978;5.656;2023-07-08T09:29:25;31.0;38.0
81140;SHT31;70624;51.978;5.656;2023-07-08T09:31:56;31.1;37.9
81140;SHT31;70624;51.978;5.656;2023-07-08T09:34:40;31.1;37.7
81140;SHT31;70624;51.978;5.656;2023-07-08T09:37:22;31.2;37.7
81140;SHT31;70624;51.978;5.656;2023-07-08T09:39:52;31.3;37.7
81140;SHT31;70624;51.978;5.656;2023-07-08T09:42:23;31.4;39.0
81140;SHT31;70624;51.978;5.656;2023-07-08T09:44:57;31.5;39.0
81140;SHT31;70624;51.978;5.656;2023-07-08T09:47:29;31.6;37.8
81140;SHT31;70624;51.978;5.656;2023-07-08T09:50:03;31.7;38.2
81140;SHT31;70624;51.978;5.656;2023-07-08T09:52:33;31.8;38.7
81140;SHT31;70624;51.978;5.656;2023-07-08T09:55:01;31.9;38.9
81140;SHT31;70624;51.978;5.656;2023-07-08T09:57:32;32.0;35.9
81140;SHT31;70624;51.978;5.656;2023-07-08T10:00:09;32.1;36.2
81140;SHT31;70624;51.978;5.656;2023-07-08T10:02:43;32.1;36.5
81140;SHT31;70624;51.978;5.656;2023-07-08T10:05:18;32.2;36.9
81140;SHT31;70624;51.978;5.656;2023-07-08T10:07:48;32.3;37.6
81140;SHT31;70624;51.978;5.656;2023-07-08T10:10:29;32.4;36.3
81140;SHT31;70624;51.978;5.656;2023-07-08T10:13:02;32.5;37.6
81140;SHT31;70624;51.978;5.656;2023-07-08T10:15:37;32.6;37.1
81140;SHT31;70624;51.978;5.656;2023-07-08T10:18:14;32.7;36.9
81140;SHT31;70624;51.978;5.656;2023-07-08T10:20:52;32.8;35.9
81140;SHT31;70624;51.978;5.656;2023-07-08T10:23:34;32.9;34.6
81140;SHT31;70624;51.978;5.656;2023-07-08T10:26:24;32.9;36.6
81140;SHT31;70624;51.978;5.656;2023-07-08T10:28:49;33.0;36.7
81140;SHT31;70624;51.978;5.656;2023-07-08T10:31:30;33.1;34.6
81140;SHT31;70624;51.978;5.656;2023-07-08T10:34:12;33.2;35.2
81140;SHT31;70624;51.978;5.656;2023-07-08T10:36:52;33.3;34.3
81140;SHT31;70624;51.978;5.656;2023-07-08T10:39:58;33.3;35.2
81140;SHT31;70624;51.978;5.656;2023-07-08T10:42:51;33.3;35.7
81140;SHT31;70624;51.978;5.656;2023-07-08T10:45:29;33.4;34.5
81140;SHT31;70624;51.978;5.656;2023-07-08T10:48:13;33.5;33.8
81140;SHT31;70624;51.978;5.656;2023-07-08T10:50:56;33.5;35.1
81140;SHT31;70624;51.978;5.656;2023-07-08T10:53:36;33.6;33.4
81140;SHT31;70624;51.978;5.656;2023-07-08T10:56:16;33.6;32.9
81140;SHT31;70624;51.978;5.656;2023-07-08T10:59:10;33.7;34.8
81140;SHT31;70624;51.978;5.656;2023-07-08T11:01:50;33.7;33.2
81140;SHT31;70624;51.978;5.656;2023-07-08T11:04:33;33.8;34.0
81140;SHT31;70624;51.978;5.656;2023-07-08T11:07:16;33.8;34.4
81140;SHT31;70624;51.978;5.656;2023-07-08T11:09:51;33.8;34.5
81140;SHT31;70624;51.978;5.656;2023-07-08T11:12:26;33.8;34.1
81140;SHT31;70624;51.978;5.656;2023-07-08T11:15:02;33.8;34.6
81140;SHT31;70624;51.978;5.656;2023-07-08T11:17:38;33.7;34.7
81140;SHT31;70624;51.978;5.656;2023-07-08T11:20:19;33.7;35.3
81140;SHT31;70624;51.978;5.656;2023-07-08T11:22:54;33.7;34.2
81140;SHT31;70624;51.978;5.656;2023-07-08T11:25:26;33.7;33.9
81140;SHT31;70624;51.978;5.656;2023-07-08T11:27:59;33.7;33.6
81140;SHT31;70624;51.978;5.656;2023-07-08T11:30:33;33.6;33.2
81140;SHT31;70624;51.978;5.656;2023-07-08T11:33:10;33.5;33.9
81140;SHT31;70624;51.978;5.656;2023-07-08T11:35:44;33.5;33.8
81140;SHT31;70624;51.978;5.656;2023-07-08T11:38:16;33.5;33.2
81140;SHT31;70624;51.978;5.656;2023-07-08T11:40:53;33.5;34.2
81140;SHT31;70624;51.978;5.656;2023-07-08T11:43:25;33.4;34.5
81140;SHT31;70624;51.978;5.656;2023-07-08T11:45:57;33.4;33.6
81140;SHT31;70624;51.978;5.656;2023-07-08T11:48:29;33.4;34.2
81140;SHT31;70624;51.978;5.656;2023-07-08T11:51:05;33.4;34.2
81140;SHT31;70624;51.978;5.656;2023-07-08T11:53:38;33.4;33.2
81140;SHT31;70624;51.978;5.656;2023-07-08T11:56:23;33.4;32.7
81140;SHT31;70624;51.978;5.656;2023-07-08T11:59:03;33.4;33.8
81140;SHT31;70624;51.978;5.656;2023-07-08T12:01:38;33.4;34.4
81140;SHT31;70624;51.978;5.656;2023-07-08T12:05:58;33.5;33.0
81140;SHT31;70624;51.978;5.656;2023-07-08T12:08:37;33.5;33.7
81140;SHT31;70624;51.978;5.656;2023-07-08T12:11:11;33.5;32.7
81140;SHT31;70624;51.978;5.656;2023-07-08T12:13:40;33.5;33.0
81140;SHT31;70624;51.978;5.656;2023-07-08T12:16:11;33.4;33.0
81140;SHT31;70624;51.978;5.656;2023-07-08T12:18:42;33.4;33.0
81140;SHT31;70624;51.978;5.656;2023-07-08T12:21:13;33.4;33.9
81140;SHT31;70624;51.978;5.656;2023-07-08T12:23:46;33.4;33.9
81140;SHT31;70624;51.978;5.656;2023-07-08T12:26:15;33.3;33.8
81140;SHT31;70624;51.978;5.656;2023-07-08T12:28:46;33.3;33.4
81140;SHT31;70624;51.978;5.656;2023-07-08T12:31:17;33.3;33.7
81140;SHT31;70624;51.978;5.656;2023-07-08T12:33:47;33.3;33.3
81140;SHT31;70624;51.978;5.656;2023-07-08T12:36:19;33.2;33.0
81140;SHT31;70624;51.978;5.656;2023-07-08T12:38:51;33.2;33.4
81140;SHT31;70624;51.978;5.656;2023-07-08T12:41:22;33.2;32.8
81140;SHT31;70624;51.978;5.656;2023-07-08T12:43:51;33.2;33.0
81140;SHT31;70624;51.978;5.656;2023-07-08T12:46:22;33.2;33.2
81140;SHT31;70624;51.978;5.656;2023-07-08T12:48:51;33.2;32.1
81140;SHT31;70624;51.978;5.656;2023-07-08T12:51:21;33.2;32.7
81140;SHT31;70624;51.978;5.656;2023-07-08T12:53:51;33.2;31.9
81140;SHT31;70624;51.978;5.656;2023-07-08T12:56:23;33.2;32.5
81140;SHT31;70624;51.978;5.656;2023-07-08T12:58:56;33.2;32.6
81140;SHT31;70624;51.978;5.656;2023-07-08T13:01:29;33.2;32.3
81140;SHT31;70624;51.978;5.656;2023-07-08T13:04:02;33.2;32.9
81140;SHT31;70624;51.978;5.656;2023-07-08T13:06:33;33.2;32.2
81140;SHT31;70624;51.978;5.656;2023-07-08T13:09:14;33.2;32.2
81140;SHT31;70624;51.978;5.656;2023-07-08T13:11:46;33.2;32.7
81140;SHT31;70624;51.978;5.656;2023-07-08T13:14:15;33.2;32.2
81140;SHT31;70624;51.978;5.656;2023-07-08T13:16:45;33.3;32.0
81140;SHT31;70624;51.978;5.656;2023-07-08T13:19:15;33.3;32.3
81140;SHT31;70624;51.978;5.656;2023-07-08T13:21:46;33.3;32.2
81140;SHT31;70624;51.978;5.656;2023-07-08T13:24:15;33.3;31.6
81140;SHT31;70624;51.978;5.656;2023-07-08T13:26:48;33.3;31.4
81140;SHT31;70624;51.978;5.656;2023-07-08T13:29:19;33.3;31.4
81140;SHT31;70624;51.978;5.656;2023-07-08T13:31:53;33.3;32.3
81140;SHT31;70624;51.978;5.656;2023-07-08T13:34:24;33.3;32.5
81140;SHT31;70624;51.978;5.656;2023-07-08T13:36:54;33.3;32.2
81140;SHT31;70624;51.978;5.656;2023-07-08T13:39:27;33.3;32.4
81140;SHT31;70624;51.978;5.656;2023-07-08T13:41:57;33.3;32.6
81140;SHT31;70624;51.978;5.656;2023-07-08T13:44:27;33.4;32.4
81140;SHT31;70624;51.978;5.656;2023-07-08T13:46:58;33.4;32.8
81140;SHT31;70624;51.978;5.656;2023-07-08T13:49:31;33.4;32.7
81140;SHT31;70624;51.978;5.656;2023-07-08T13:52:13;33.4;33.2
81140;SHT31;70624;51.978;5.656;2023-07-08T13:54:44;33.4;33.3
81140;SHT31;70624;51.978;5.656;2023-07-08T13:57:17;33.5;32.1
81140;SHT31;70624;51.978;5.656;2023-07-08T13:59:45;33.5;33.4
81140;SHT31;70624;51.978;5.656;2023-07-08T14:02:19;33.5;32.2
81140;SHT31;70624;51.978;5.656;2023-07-08T14:04:49;33.5;32.3
81140;SHT31;70624;51.978;5.656;2023-07-08T14:07:20;33.5;31.7
81140;SHT31;70624;51.978;5.656;2023-07-08T14:09:49;33.5;31.7
81140;SHT31;70624;51.978;5.656;2023-07-08T14:12:18;33.5;32.1
81140;SHT31;70624;51.978;5.656;2023-07-08T14:14:47;33.5;32.3
81140;SHT31;70624;51.978;5.656;2023-07-08T14:17:20;33.4;32.3
81140;SHT31;70624;51.978;5.656;2023-07-08T14:19:49;33.4;32.3
81140;SHT31;70624;51.978;5.656;2023-07-08T14:22:23;33.4;33.7
81140;SHT31;70624;51.978;5.656;2023-07-08T14:24:52;33.4;32.4
81140;SHT31;70624;51.978;5.656;2023-07-08T14:27:24;33.4;31.4
81140;SHT31;70624;51.978;5.656;2023-07-08T14:29:52;33.4;32.3
81140;SHT31;70624;51.978;5.656;2023-07-08T14:32:26;33.4;31.9
81140;SHT31;70624;51.978;5.656;2023-07-08T14:34:58;33.4;32.6
81140;SHT31;70624;51.978;5.656;2023-07-08T14:37:29;33.4;32.1
81140;SHT31;70624;51.978;5.656;2023-07-08T14:39:58;33.4;31.9
81140;SHT31;70624;51.978;5.656;2023-07-08T14:42:27;33.5;32.2
81140;SHT31;70624;51.978;5.656;2023-07-08T14:44:56;33.5;32.4
81140;SHT31;70624;51.978;5.656;2023-07-08T14:47:25;33.5;32.0
81140;SHT31;70624;51.978;5.656;2023-07-08T14:49:53;33.5;31.6
81140;SHT31;70624;51.978;5.656;2023-07-08T14:52:23;33.5;32.2
81140;SHT31;70624;51.978;5.656;2023-07-08T14:54:51;33.5;32.0
81140;SHT31;70624;51.978;5.656;2023-07-08T14:57:27;33.5;31.1
81140;SHT31;70624;51.978;5.656;2023-07-08T14:59:59;33.5;31.4
81140;SHT31;70624;51.978;5.656;2023-07-08T15:02:30;33.5;31.4
81140;SHT31;70624;51.978;5.656;2023-07-08T15:04:58;33.5;32.7
81140;SHT31;70624;51.978;5.656;2023-07-08T15:07:26;33.5;32.2
81140;SHT31;70624;51.978;5.656;2023-07-08T15:09:55;33.5;32.2
81140;SHT31;70624;51.978;5.656;2023-07-08T15:12:23;33.5;31.0
81140;SHT31;70624;51.978;5.656;2023-07-08T15:14:52;33.5;31.0
81140;SHT31;70624;51.978;5.656;2023-07-08T15:17:20;33.5;31.1
81140;SHT31;70624;51.978;5.656;2023-07-08T15:19:48;33.5;30.8
81140;SHT31;70624;51.978;5.656;2023-07-08T15:22:17;33.5;30.7
81140;SHT31;70624;51.978;5.656;2023-07-08T15:24:45;33.5;30.8
81140;SHT31;70624;51.978;5.656;2023-07-08T15:27:20;33.5;30.8
81140;SHT31;70624;51.978;5.656;2023-07-08T15:29:47;33.6;31.1
81140;SHT31;70624;51.978;5.656;2023-07-08T15:32:17;33.6;31.3
81140;SHT31;70624;51.978;5.656;2023-07-08T15:34:46;33.6;30.5
81140;SHT31;70624;51.978;5.656;2023-07-08T15:37:15;33.6;30.1
81140;SHT31;70624;51.978;5.656;2023-07-08T15:39:43;33.6;30.2
81140;SHT31;70624;51.978;5.656;2023-07-08T15:42:13;33.6;30.8
81140;SHT31;70624;51.978;5.656;2023-07-08T15:44:43;33.6;30.0
81140;SHT31;70624;51.978;5.656;2023-07-08T15:47:16;33.6;30.2
81140;SHT31;70624;51.978;5.656;2023-07-08T15:49:45;33.6;29.9
81140;SHT31;70624;51.978;5.656;2023-07-08T15:52:13;33.6;29.8
81140;SHT31;70624;51.978;5.656;2023-07-08T15:54:41;33.5;30.2
81140;SHT31;70624;51.978;5.656;2023-07-08T15:57:12;33.5;30.3
81140;SHT31;70624;51.978;5.656;2023-07-08T15:59:41;33.5;31.1
81140;SHT31;70624;51.978;5.656;2023-07-08T16:02:25;33.6;30.4
81140;SHT31;70624;51.978;5.656;2023-07-08T16:04:54;33.5;30.3
81140;SHT31;70624;51.978;5.656;2023-07-08T16:07:23;33.5;30.1
81140;SHT31;70624;51.978;5.656;2023-07-08T16:09:51;33.5;30.1
81140;SHT31;70624;51.978;5.656;2023-07-08T16:12:22;33.5;30.7
81140;SHT31;70624;51.978;5.656;2023-07-08T16:14:51;33.5;31.4
81140;SHT31;70624;51.978;5.656;2023-07-08T16:17:21;33.5;31.1
81140;SHT31;70624;51.978;5.656;2023-07-08T16:19:50;33.5;31.8
81140;SHT31;70624;51.978;5.656;2023-07-08T16:22:18;33.5;32.7
81140;SHT31;70624;51.978;5.656;2023-07-08T16:24:46;33.5;32.0
81140;SHT31;70624;51.978;5.656;2023-07-08T16:27:17;33.5;31.7
81140;SHT31;70624;51.978;5.656;2023-07-08T16:29:45;33.6;32.4
81140;SHT31;70624;51.978;5.656;2023-07-08T16:32:14;33.6;33.0